Time;durP1;ratioP1;P1;durP2;ratioP2;P2;SDS_P1;SDS_P2;PMS_P1;PMS_P2;Temp;Humidity;BMP_temperature;BMP_pressure;BME280_temperature;BME280_humidity;BME280_pressure;Samples;Min_cycle;Max_cycle;Signal;HPM_P1;HPM_P2
2021/09/05 00:02:06;;;;;;;17.17;14.90;;;20.70;97.60;;;;;;6185754;23;20449;-82
2021/09/05 00:04:33;;;;;;;14.93;13.43;;;20.60;97.80;;;;;;6181637;23;20422;-83
2021/09/05 00:07:00;;;;;;;15.60;14.00;;;20.60;98.10;;;;;;6184160;23;20406;-82
2021/09/05 00:09:27;;;;;;;15.97;14.00;;;20.60;98.10;;;;;;6181568;23;20406;-82
2021/09/05 00:11:54;;;;;;;15.87;13.50;;;20.60;98.00;;;;;;6183875;23;20406;-82
2021/09/05 00:14:23;;;;;;;15.57;13.50;;;20.70;98.20;;;;;;6182078;23;20477;-81
2021/09/05 00:16:49;;;;;;;16.63;14.60;;;20.70;98.00;;;;;;6181869;23;20417;-82
2021/09/05 00:19:16;;;;;;;15.60;14.00;;;20.50;97.90;;;;;;6181997;23;20468;-83
2021/09/05 00:21:43;;;;;;;19.00;14.30;;;20.50;98.00;;;;;;6184718;23;20881;-82
2021/09/05 00:24:12;;;;;;;17.17;14.57;;;20.50;98.00;;;;;;6182803;23;20426;-82
2021/09/05 00:26:39;;;;;;;15.83;14.17;;;20.40;98.10;;;;;;6181649;23;20418;-81
2021/09/05 00:29:05;;;;;;;17.10;14.40;;;20.20;98.70;;;;;;6183568;23;20410;-83
2021/09/05 00:31:32;;;;;;;15.87;14.23;;;20.20;99.10;;;;;;6181915;23;20445;-82
2021/09/05 00:34:01;;;;;;;19.37;15.50;;;20.20;99.00;;;;;;6183937;23;20924;-82
2021/09/05 00:36:27;;;;;;;18.47;16.57;;;20.10;99.00;;;;;;6184606;23;20410;-82
2021/09/05 00:38:54;;;;;;;16.67;14.70;;;19.90;99.20;;;;;;6182369;23;20825;-83
2021/09/05 00:41:21;;;;;;;16.67;14.87;;;19.90;99.70;;;;;;6177473;23;20505;-80
2021/09/05 00:44:06;;;;;;;17.20;15.30;;;19.90;99.90;;;;;;6186947;23;20449;-81
2021/09/05 00:46:34;;;;;;;16.37;14.67;;;19.90;99.90;;;;;;6184698;23;21092;-82
2021/09/05 00:49:02;;;;;;;16.80;15.10;;;19.70;99.90;;;;;;6185630;23;20520;-83
2021/09/05 00:51:31;;;;;;;18.07;16.00;;;19.70;99.90;;;;;;6188040;23;20387;-82
2021/09/05 00:53:59;;;;;;;17.27;15.47;;;19.70;99.90;;;;;;6203202;23;20490;-82
2021/09/05 00:56:28;;;;;;;18.33;14.87;;;19.60;99.90;;;;;;6181084;23;20493;-81
2021/09/05 00:58:59;;;;;;;15.97;14.37;;;19.40;99.90;;;;;;6181277;23;20445;-80
2021/09/05 01:01:25;;;;;;;17.63;15.20;;;19.40;99.90;;;;;;6180716;23;20424;-81
2021/09/05 01:03:52;;;;;;;17.70;14.63;;;19.40;99.90;;;;;;6175553;23;20477;-80
2021/09/05 01:06:20;;;;;;;16.23;14.70;;;19.50;99.90;;;;;;6178347;23;20496;-80
2021/09/05 01:08:48;;;;;;;16.23;14.53;;;19.50;99.90;;;;;;6178392;23;20418;-81
2021/09/05 01:11:16;;;;;;;16.03;14.03;;;19.40;99.90;;;;;;6179320;23;20409;-82
2021/09/05 01:13:43;;;;;;;16.70;15.00;;;19.40;99.90;;;;;;6181499;23;20454;-81
2021/09/05 01:16:35;;;;;;;15.90;14.30;;;19.40;99.90;;;;;;6183229;23;20409;-81
2021/09/05 01:19:07;;;;;;;16.57;14.87;;;19.30;99.90;;;;;;6183791;23;20401;-82
2021/09/05 01:21:34;;;;;;;15.50;14.00;;;19.20;99.90;;;;;;6200302;23;20418;-81
2021/09/05 01:24:02;;;;;;;16.70;14.40;;;19.20;99.90;;;;;;6182591;23;20468;-81
2021/09/05 01:26:33;;;;;;;15.80;13.90;;;19.10;99.90;;;;;;6174818;23;20417;-80
2021/09/05 01:29:01;;;;;;;15.37;13.87;;;19.10;99.90;;;;;;6169249;23;20408;-82
2021/09/05 01:31:53;;;;;;;15.00;12.13;;;19.10;99.90;;;;;;6176791;23;20413;-80
2021/09/05 01:34:22;;;;;;;16.00;14.33;;;19.10;99.90;;;;;;6175328;23;20838;-80
2021/09/05 01:36:51;;;;;;;15.80;14.20;;;19.10;99.90;;;;;;6175607;23;20410;-80
2021/09/05 01:39:19;;;;;;;15.83;14.13;;;19.30;99.90;;;;;;6174506;23;20445;-81
2021/09/05 01:41:46;;;;;;;15.70;14.27;;;19.30;99.90;;;;;;6177408;23;20877;-82
2021/09/05 01:44:17;;;;;;;14.77;13.27;;;19.40;99.90;;;;;;6178000;23;20456;-81
2021/09/05 01:46:43;;;;;;;15.80;14.30;;;19.20;99.90;;;;;;6176052;23;20582;-81
2021/09/05 01:49:10;;;;;;;16.23;14.70;;;19.10;99.90;;;;;;6176530;23;20433;-83
2021/09/05 01:51:37;;;;;;;15.50;14.07;;;19.00;99.90;;;;;;6178108;23;20432;-82
2021/09/05 01:54:04;;;;;;;18.00;16.07;;;18.90;99.90;;;;;;6175854;23;20456;-82
2021/09/05 01:56:32;;;;;;;18.27;15.87;;;18.80;99.90;;;;;;6184083;23;20406;-79
2021/09/05 01:59:02;;;;;;;16.73;14.40;;;18.80;99.90;;;;;;6185852;23;20406;-79
2021/09/05 02:01:30;;;;;;;21.70;14.93;;;18.80;99.90;;;;;;6186690;23;20399;-80
2021/09/05 02:03:57;;;;;;;17.23;15.30;;;18.90;99.90;;;;;;6183465;23;20511;-80
2021/09/05 02:06:26;;;;;;;16.53;14.83;;;19.00;99.90;;;;;;6183117;23;20406;-80
2021/09/05 02:08:57;;;;;;;19.67;17.60;;;19.00;99.90;;;;;;6180744;23;20410;-81
2021/09/05 02:11:24;;;;;;;17.07;15.20;;;19.00;99.90;;;;;;6179479;23;20425;-81
2021/09/05 02:13:52;;;;;;;20.10;17.93;;;18.80;99.90;;;;;;6179205;23;20434;-82
2021/09/05 02:16:19;;;;;;;20.37;16.33;;;18.80;99.90;;;;;;6179413;23;20780;-82
2021/09/05 02:18:46;;;;;;;19.00;17.00;;;18.80;99.90;;;;;;6177532;23;20414;-82
2021/09/05 02:21:13;;;;;;;21.13;17.00;;;18.80;99.90;;;;;;6178134;23;20414;-83
2021/09/05 02:23:40;;;;;;;22.23;18.30;;;18.70;99.90;;;;;;6179182;23;20450;-81
2021/09/05 02:26:06;;;;;;;19.07;17.07;;;18.70;99.90;;;;;;6180996;23;20406;-80
2021/09/05 02:28:33;;;;;;;20.03;16.27;;;18.70;99.90;;;;;;6182746;23;20442;-80
2021/09/05 02:31:00;;;;;;;24.70;18.60;;;18.70;99.90;;;;;;6188753;23;20937;-81
2021/09/05 02:33:27;;;;;;;21.97;18.30;;;18.60;99.90;;;;;;6186807;23;20414;-80
2021/09/05 02:35:53;;;;;;;24.93;19.47;;;18.70;99.90;;;;;;6183155;23;20409;-82
2021/09/05 02:38:20;;;;;;;23.50;17.23;;;18.60;99.90;;;;;;6181030;23;20782;-82
2021/09/05 02:40:47;;;;;;;19.93;17.83;;;18.70;99.90;;;;;;6179092;23;20414;-82
2021/09/05 02:43:14;;;;;;;18.63;15.80;;;18.60;99.90;;;;;;6179320;23;20422;-81
2021/09/05 02:45:40;;;;;;;17.67;15.87;;;18.50;99.90;;;;;;6177888;23;20416;-82
2021/09/05 02:48:07;;;;;;;20.83;18.57;;;18.50;99.90;;;;;;6177562;23;20449;-80
2021/09/05 02:50:34;;;;;;;18.77;16.13;;;18.60;99.90;;;;;;6178611;23;20415;-83
2021/09/05 02:53:00;;;;;;;19.30;16.70;;;18.70;99.90;;;;;;6183226;23;20420;-80
2021/09/05 02:55:27;;;;;;;20.90;18.63;;;18.80;99.90;;;;;;6180215;23;20433;-79
2021/09/05 02:57:53;;;;;;;18.87;16.87;;;18.80;99.90;;;;;;6176102;23;20641;-81
2021/09/05 03:00:20;;;;;;;21.40;17.27;;;18.70;99.90;;;;;;6180636;23;20410;-83
2021/09/05 03:02:47;;;;;;;20.83;18.63;;;18.70;99.90;;;;;;6177322;23;20441;-83
2021/09/05 03:05:14;;;;;;;19.97;17.80;;;18.50;99.90;;;;;;6179463;23;21418;-83
2021/09/05 03:07:41;;;;;;;20.00;17.60;;;18.40;99.90;;;;;;6178608;23;20394;-83
2021/09/05 03:10:08;;;;;;;21.17;18.83;;;18.40;99.90;;;;;;6174629;23;20414;-82
2021/09/05 03:12:35;;;;;;;19.43;17.17;;;18.60;99.90;;;;;;6178423;23;20413;-81
2021/09/05 03:15:01;;;;;;;19.70;17.70;;;18.50;99.90;;;;;;6180019;23;20430;-84
2021/09/05 03:17:30;;;;;;;20.50;17.40;;;18.40;99.90;;;;;;6199594;23;20409;-84
2021/09/05 03:19:56;;;;;;;20.60;18.17;;;18.30;99.90;;;;;;6203743;23;20386;-83
2021/09/05 03:22:23;;;;;;;19.77;17.77;;;18.30;99.90;;;;;;6204462;23;20406;-83
2021/09/05 03:24:49;;;;;;;22.07;17.37;;;18.20;99.90;;;;;;6200300;23;20457;-83
2021/09/05 03:27:16;;;;;;;19.37;17.00;;;18.10;99.90;;;;;;6179247;23;20967;-81
2021/09/05 03:29:43;;;;;;;17.57;15.60;;;18.20;99.90;;;;;;6176744;23;20414;-81
2021/09/05 03:32:09;;;;;;;19.00;16.47;;;18.20;99.90;;;;;;6177216;23;20413;-82
2021/09/05 03:34:36;;;;;;;17.63;15.77;;;18.20;99.90;;;;;;6174888;23;20430;-82
2021/09/05 03:37:03;;;;;;;17.73;16.03;;;18.10;99.90;;;;;;6174852;23;20456;-82
2021/09/05 03:39:29;;;;;;;17.90;14.73;;;18.10;99.90;;;;;;6174833;23;20394;-79
2021/09/05 03:41:56;;;;;;;14.20;12.80;;;18.00;99.90;;;;;;6173984;23;20406;-81
2021/09/05 03:44:23;;;;;;;17.27;14.47;;;18.00;99.90;;;;;;6177377;23;20449;-80
2021/09/05 03:46:49;;;;;;;16.30;14.70;;;18.00;99.90;;;;;;6176524;23;20445;-81
2021/09/05 03:49:16;;;;;;;15.93;14.33;;;18.00;99.90;;;;;;6182678;23;20416;-82
2021/09/05 03:51:43;;;;;;;16.70;15.00;;;18.10;99.90;;;;;;6173073;23;20406;-81
2021/09/05 03:54:09;;;;;;;16.93;15.23;;;18.30;99.90;;;;;;6172976;23;20440;-81
2021/09/05 03:56:36;;;;;;;19.40;15.47;;;18.20;99.90;;;;;;6172165;23;20850;-82
2021/09/05 03:59:03;;;;;;;16.30;14.50;;;18.20;99.90;;;;;;6170522;23;20420;-80
2021/09/05 04:01:31;;;;;;;15.20;13.70;;;18.20;99.90;;;;;;6174276;23;20405;-82
2021/09/05 04:03:58;;;;;;;16.13;14.63;;;18.20;99.90;;;;;;6178253;23;20778;-82
2021/09/05 04:06:25;;;;;;;18.93;15.30;;;18.10;99.90;;;;;;6177919;23;20501;-82
2021/09/05 04:08:52;;;;;;;15.17;13.40;;;18.20;99.90;;;;;;6176144;23;20414;-81
2021/09/05 04:11:19;;;;;;;15.07;13.57;;;18.20;99.90;;;;;;6176038;23;20424;-81
2021/09/05 04:13:45;;;;;;;14.23;12.83;;;18.20;99.90;;;;;;6174552;23;20437;-83
2021/09/05 04:16:12;;;;;;;14.27;12.93;;;18.20;99.90;;;;;;6178958;23;20398;-82
2021/09/05 04:18:39;;;;;;;14.63;13.13;;;18.20;99.90;;;;;;6178396;23;20414;-83
2021/09/05 04:21:05;;;;;;;13.93;12.57;;;18.20;99.90;;;;;;6176444;23;20414;-81
2021/09/05 04:23:32;;;;;;;14.50;13.00;;;18.20;99.90;;;;;;6179291;23;20449;-82
2021/09/05 04:25:59;;;;;;;13.63;12.23;;;18.10;99.90;;;;;;6178292;23;20413;-83
2021/09/05 04:28:25;;;;;;;15.13;13.60;;;18.10;99.90;;;;;;6182667;23;20410;-81
2021/09/05 04:30:52;;;;;;;14.23;12.80;;;18.40;99.90;;;;;;6180272;23;20410;-80
2021/09/05 04:33:19;;;;;;;12.77;11.57;;;18.40;99.90;;;;;;6177631;23;20418;-82
2021/09/05 04:35:45;;;;;;;15.27;12.20;;;18.30;99.90;;;;;;6179764;23;20954;-80
2021/09/05 04:38:12;;;;;;;14.20;11.90;;;18.20;99.90;;;;;;6174846;23;20432;-80
2021/09/05 04:40:39;;;;;;;14.53;13.13;;;18.20;99.90;;;;;;6181183;23;20414;-81
2021/09/05 04:43:05;;;;;;;16.23;13.63;;;18.10;99.90;;;;;;6188966;23;20410;-80
2021/09/05 04:45:32;;;;;;;12.90;11.60;;;18.00;99.90;;;;;;6191239;23;20492;-82
2021/09/05 04:47:59;;;;;;;12.87;11.37;;;17.90;99.90;;;;;;6178810;23;20492;-81
2021/09/05 04:50:26;;;;;;;15.80;13.10;;;18.00;99.90;;;;;;6179814;23;20963;-81
2021/09/05 04:52:52;;;;;;;14.97;11.60;;;17.90;99.90;;;;;;6178811;23;20420;-80
2021/09/05 04:55:19;;;;;;;12.83;11.40;;;17.80;99.90;;;;;;6178156;23;20488;-80
2021/09/05 04:57:46;;;;;;;14.10;12.70;;;17.90;99.90;;;;;;6179317;23;20409;-80
2021/09/05 05:00:13;;;;;;;13.43;12.03;;;17.90;99.90;;;;;;6181020;23;20420;-80
2021/09/05 05:02:39;;;;;;;14.00;12.60;;;17.80;99.90;;;;;;6180482;23;20449;-82
2021/09/05 05:05:07;;;;;;;12.30;10.73;;;17.80;99.90;;;;;;6180306;23;20484;-80
2021/09/05 05:07:34;;;;;;;14.40;12.90;;;17.80;99.90;;;;;;6180815;23;20742;-80
2021/09/05 05:10:00;;;;;;;13.90;11.80;;;17.80;99.90;;;;;;6178965;23;20398;-81
2021/09/05 05:12:27;;;;;;;12.33;11.13;;;17.70;99.90;;;;;;6179571;23;20406;-81
2021/09/05 05:14:54;;;;;;;13.33;12.03;;;17.70;99.90;;;;;;6179132;23;20434;-82
2021/09/05 05:17:20;;;;;;;13.33;11.83;;;17.70;99.90;;;;;;6179776;23;20424;-80
2021/09/05 05:19:47;;;;;;;13.17;10.90;;;17.70;99.90;;;;;;6177038;23;20413;-81
2021/09/05 05:22:13;;;;;;;12.20;10.90;;;17.80;99.90;;;;;;6179722;23;20413;-81
2021/09/05 05:24:40;;;;;;;13.33;11.93;;;17.90;99.90;;;;;;6176884;23;20467;-81
2021/09/05 05:27:07;;;;;;;15.03;12.27;;;17.70;99.90;;;;;;6179880;23;20413;-82
2021/09/05 05:29:33;;;;;;;14.47;11.53;;;17.80;99.90;;;;;;6180243;23;20448;-82
2021/09/05 05:32:00;;;;;;;14.43;12.93;;;17.80;99.90;;;;;;6180131;23;20513;-82
2021/09/05 05:34:27;;;;;;;14.20;12.43;;;18.00;99.90;;;;;;6176922;23;20422;-82
2021/09/05 05:36:53;;;;;;;13.77;12.37;;;18.00;99.90;;;;;;6180469;23;20413;-81
2021/09/05 05:39:20;;;;;;;13.80;12.30;;;18.00;99.90;;;;;;6178989;23;20430;-81
2021/09/05 05:41:46;;;;;;;13.00;11.70;;;18.00;99.90;;;;;;6177427;23;20414;-82
2021/09/05 05:44:13;;;;;;;15.13;11.93;;;18.10;99.90;;;;;;6178313;23;20549;-82
2021/09/05 05:46:40;;;;;;;13.40;11.80;;;18.00;99.90;;;;;;6178140;23;20433;-80
2021/09/05 05:49:06;;;;;;;13.47;12.10;;;17.90;99.90;;;;;;6175665;23;20414;-82
2021/09/05 05:51:33;;;;;;;14.43;11.97;;;17.90;99.90;;;;;;6179429;23;20417;-79
2021/09/05 05:54:00;;;;;;;13.90;12.03;;;17.90;99.90;;;;;;6176645;23;20438;-80
2021/09/05 05:56:26;;;;;;;13.23;11.93;;;17.90;99.90;;;;;;6178419;23;20604;-80
2021/09/05 05:58:53;;;;;;;13.97;12.20;;;18.00;99.90;;;;;;6190945;23;20453;-83
2021/09/05 06:01:20;;;;;;;14.43;12.63;;;17.90;99.90;;;;;;6189654;23;20575;-79
2021/09/05 06:03:46;;;;;;;13.43;12.00;;;17.90;99.90;;;;;;6180605;23;20446;-83
2021/09/05 06:06:13;;;;;;;15.60;12.43;;;18.40;99.90;;;;;;6182757;23;20402;-81
2021/09/05 06:08:40;;;;;;;15.83;11.87;;;20.40;99.90;;;;;;6180673;23;20418;-82
2021/09/05 06:11:07;;;;;;;12.63;10.80;;;22.20;96.30;;;;;;6180729;23;20410;-83
2021/09/05 06:13:34;;;;;;;11.20;10.10;;;23.50;93.10;;;;;;6179259;23;20528;-81
2021/09/05 06:16:01;;;;;;;12.57;11.10;;;24.20;91.40;;;;;;6181016;23;20441;-80
2021/09/05 06:18:27;;;;;;;13.90;11.10;;;25.10;89.30;;;;;;6180094;23;20509;-81
2021/09/05 06:20:54;;;;;;;14.90;11.10;;;25.60;86.20;;;;;;6179309;23;20402;-82
2021/09/05 06:23:21;;;;;;;13.33;11.93;;;26.10;83.50;;;;;;6180997;23;20728;-79
2021/09/05 06:25:47;;;;;;;12.30;11.10;;;26.70;80.40;;;;;;6180481;23;20409;-81
2021/09/05 06:28:14;;;;;;;13.37;11.97;;;27.10;78.30;;;;;;6181430;23;20410;-82
2021/09/05 06:30:41;;;;;;;12.03;10.90;;;27.30;76.70;;;;;;6194988;23;20406;-83
2021/09/05 06:33:08;;;;;;;12.30;11.00;;;27.80;75.30;;;;;;6182695;23;20525;-82
2021/09/05 06:35:34;;;;;;;12.87;11.60;;;28.60;70.50;;;;;;6177026;23;20429;-80
2021/09/05 06:38:01;;;;;;;12.70;11.40;;;29.10;67.70;;;;;;6176622;23;20920;-81
2021/09/05 06:40:28;;;;;;;12.57;11.27;;;29.40;65.20;;;;;;6178102;23;20417;-81
2021/09/05 06:42:55;;;;;;;11.67;10.57;;;29.50;64.20;;;;;;6175930;23;20420;-81
2021/09/05 06:45:23;;;;;;;12.53;11.33;;;30.00;61.80;;;;;;6177680;23;20469;-83
2021/09/05 06:47:50;;;;;;;12.07;10.77;;;30.20;59.20;;;;;;6176289;23;20753;-80
2021/09/05 06:50:16;;;;;;;11.90;10.67;;;29.60;60.00;;;;;;6187087;23;20494;-81
2021/09/05 06:52:43;;;;;;;13.50;12.17;;;30.00;59.50;;;;;;6179736;23;20417;-80
2021/09/05 06:55:10;;;;;;;13.40;11.77;;;29.60;59.10;;;;;;6178266;23;20434;-81
2021/09/05 06:57:37;;;;;;;13.53;12.17;;;29.40;59.50;;;;;;6179468;23;20453;-82
2021/09/05 07:00:05;;;;;;;12.83;11.77;;;29.80;59.30;;;;;;6178875;23;20418;-82
2021/09/05 07:02:32;;;;;;;12.17;10.97;;;29.60;59.00;;;;;;6178788;23;20413;-79
2021/09/05 07:04:59;;;;;;;12.67;11.47;;;27.50;62.10;;;;;;6179888;23;20804;-81
2021/09/05 07:07:40;;;;;;;12.90;11.60;;;27.20;65.80;;;;;;6179462;23;20485;-78
2021/09/05 07:10:07;;;;;;;11.03;10.03;;;28.00;64.60;;;;;;6182744;23;20410;-78
2021/09/05 07:12:38;;;;;;;13.57;10.90;;;29.00;61.60;;;;;;6179641;23;20456;-80
2021/09/05 07:15:05;;;;;;;12.97;11.67;;;29.40;59.70;;;;;;6179101;23;20488;-81
2021/09/05 07:17:31;;;;;;;12.63;10.67;;;30.00;59.10;;;;;;6178902;23;20938;-81
2021/09/05 07:19:59;;;;;;;11.10;10.00;;;30.20;57.50;;;;;;6177258;23;20472;-81
2021/09/05 07:22:26;;;;;;;11.83;10.63;;;29.90;58.80;;;;;;6177189;23;20943;-82
2021/09/05 07:24:53;;;;;;;12.60;11.40;;;30.00;57.60;;;;;;6175154;23;20452;-80
2021/09/05 07:27:19;;;;;;;12.77;11.57;;;30.60;57.30;;;;;;6175488;23;20421;-81
2021/09/05 07:29:46;;;;;;;12.63;11.53;;;31.70;55.00;;;;;;6177645;23;20964;-82
2021/09/05 07:32:13;;;;;;;12.40;11.30;;;31.80;53.90;;;;;;6177630;23;20418;-82
2021/09/05 07:34:39;;;;;;;11.47;10.27;;;31.60;53.80;;;;;;6176566;23;20434;-82
2021/09/05 07:37:06;;;;;;;12.37;11.10;;;31.10;54.80;;;;;;6176782;23;20414;-80
2021/09/05 07:39:33;;;;;;;13.10;11.67;;;31.00;54.40;;;;;;6176235;23;20743;-81
2021/09/05 07:42:00;;;;;;;13.33;10.53;;;31.00;54.50;;;;;;6179392;23;20497;-81
2021/09/05 07:44:26;;;;;;;12.57;11.37;;;31.00;54.10;;;;;;6177415;23;20832;-81
2021/09/05 07:46:53;;;;;;;11.53;10.33;;;30.10;56.00;;;;;;6177344;23;20398;-81
2021/09/05 07:49:20;;;;;;;14.13;11.80;;;29.70;56.50;;;;;;6176439;23;20414;-79
2021/09/05 07:51:46;;;;;;;12.47;11.27;;;29.70;56.80;;;;;;6178177;23;21219;-82
2021/09/05 07:54:13;;;;;;;12.30;9.80;;;30.40;55.70;;;;;;6174049;23;20440;-80
2021/09/05 07:56:40;;;;;;;13.13;11.83;;;31.20;55.30;;;;;;6178319;23;20413;-83
2021/09/05 07:59:07;;;;;;;12.33;10.53;;;32.60;52.90;;;;;;6177431;23;20441;-82
2021/09/05 08:01:33;;;;;;;14.57;10.50;;;33.10;50.90;;;;;;6178589;23;21054;-81
2021/09/05 08:04:01;;;;;;;12.10;11.00;;;33.30;50.10;;;;;;6174918;23;20433;-83
2021/09/05 08:06:28;;;;;;;12.77;11.50;;;33.10;50.40;;;;;;6178908;23;20416;-84
2021/09/05 08:08:57;;;;;;;12.00;10.80;;;33.60;49.20;;;;;;6177944;23;20598;-81
2021/09/05 08:11:25;;;;;;;11.80;10.70;;;33.50;49.10;;;;;;6178467;23;20413;-81
2021/09/05 08:13:52;;;;;;;12.13;11.03;;;33.60;48.80;;;;;;6175378;23;20786;-82
2021/09/05 08:16:19;;;;;;;11.33;10.33;;;33.80;48.50;;;;;;6179600;23;20742;-84
2021/09/05 08:18:47;;;;;;;11.27;10.17;;;32.70;49.30;;;;;;6177972;23;20489;-81
2021/09/05 08:21:14;;;;;;;11.57;10.37;;;32.70;50.40;;;;;;6178313;23;20402;-81
2021/09/05 08:23:42;;;;;;;11.63;10.53;;;33.10;49.40;;;;;;6181842;22;20441;-81
2021/09/05 08:26:10;;;;;;;12.30;11.30;;;33.90;48.20;;;;;;6180540;23;20434;-82
2021/09/05 08:28:38;;;;;;;11.10;10.10;;;34.40;47.20;;;;;;6180967;23;20460;-82
2021/09/05 08:31:05;;;;;;;11.27;10.17;;;34.30;46.90;;;;;;6184229;23;20401;-84
2021/09/05 08:33:32;;;;;;;12.03;10.83;;;34.80;45.90;;;;;;6182492;23;20409;-80
2021/09/05 08:35:58;;;;;;;11.57;10.47;;;34.60;45.80;;;;;;6184865;23;20414;-79
2021/09/05 08:38:25;;;;;;;12.10;11.10;;;35.00;45.20;;;;;;6183213;23;20512;-81
2021/09/05 08:40:52;;;;;;;11.80;10.80;;;34.20;45.30;;;;;;6184493;23;20788;-82
2021/09/05 08:43:20;;;;;;;11.93;10.83;;;33.90;46.60;;;;;;6178788;23;20432;-81
2021/09/05 08:45:48;;;;;;;12.23;11.13;;;33.70;46.60;;;;;;6182396;23;20489;-81
2021/09/05 08:48:20;;;;;;;11.97;10.83;;;33.30;47.50;;;;;;6181653;23;20401;-82
2021/09/05 08:50:50;;;;;;;12.77;11.67;;;34.00;46.80;;;;;;6180701;23;20398;-80
2021/09/05 08:53:17;;;;;;;12.00;11.00;;;34.20;46.00;;;;;;6178445;23;20414;-82
2021/09/05 08:55:45;;;;;;;11.67;10.57;;;33.60;46.80;;;;;;6179514;23;20437;-82
2021/09/05 08:58:12;;;;;;;11.33;10.33;;;32.80;48.20;;;;;;6180196;23;20407;-82
2021/09/05 09:00:40;;;;;;;12.13;11.03;;;32.30;48.30;;;;;;6181201;23;20424;-81
2021/09/05 09:03:08;;;;;;;12.40;11.30;;;31.00;50.40;;;;;;6180793;23;20424;-81
2021/09/05 09:05:37;;;;;;;12.07;11.00;;;30.10;52.80;;;;;;6179537;23;20441;-82
2021/09/05 09:08:15;;;;;;;15.40;11.23;;;31.40;51.60;;;;;;6178832;23;20406;-81
2021/09/05 09:10:49;;;;;;;12.17;11.00;;;32.20;49.90;;;;;;6182093;23;20394;-82
2021/09/05 09:13:37;;;;;;;12.03;10.93;;;32.60;49.40;;;;;;6180142;23;20412;-82
2021/09/05 09:16:06;;;;;;;13.10;11.67;;;32.50;49.00;;;;;;6183379;23;20398;-82
2021/09/05 09:18:34;;;;;;;12.50;11.20;;;32.30;49.10;;;;;;6179846;23;20995;-83
2021/09/05 09:21:04;;;;;;;12.57;11.47;;;33.00;48.30;;;;;;6182727;23;20917;-82
2021/09/05 09:23:33;;;;;;;13.40;12.00;;;32.50;48.80;;;;;;6182992;23;20501;-82
2021/09/05 09:26:07;;;;;;;11.30;10.30;;;32.50;48.90;;;;;;6196815;23;20488;-83
2021/09/05 09:28:39;;;;;;;13.07;11.77;;;32.40;48.90;;;;;;6202858;23;20402;-80
2021/09/05 09:31:15;;;;;;;10.73;9.73;;;32.80;48.50;;;;;;6203410;23;20410;-81
2021/09/05 09:33:47;;;;;;;12.97;11.77;;;33.30;47.90;;;;;;6196120;23;20528;-79
2021/09/05 09:36:18;;;;;;;12.10;11.00;;;33.50;47.20;;;;;;6191327;23;20681;-82
2021/09/05 09:38:55;;;;;;;12.60;11.47;;;33.70;46.90;;;;;;6185524;23;20417;-82
2021/09/05 09:41:30;;;;;;;11.40;10.40;;;33.80;46.50;;;;;;6184717;23;20398;-81
2021/09/05 09:44:02;;;;;;;12.10;10.97;;;32.80;47.00;;;;;;6180948;23;20429;-81
2021/09/05 09:46:32;;;;;;;11.13;10.13;;;33.20;47.50;;;;;;6184533;23;20432;-81
2021/09/05 09:49:01;;;;;;;12.10;11.10;;;33.80;46.60;;;;;;6181330;23;20416;-81
2021/09/05 09:51:28;;;;;;;10.83;9.70;;;34.00;46.00;;;;;;6180676;23;20406;-81
2021/09/05 09:53:55;;;;;;;11.50;10.40;;;34.20;46.10;;;;;;6178268;23;20426;-81
2021/09/05 09:56:24;;;;;;;11.17;10.20;;;34.30;44.80;;;;;;6181722;23;20443;-82
2021/09/05 09:58:53;;;;;;;10.93;10.00;;;34.30;44.70;;;;;;6179922;23;20398;-81
2021/09/05 10:01:23;;;;;;;10.00;9.10;;;33.50;45.90;;;;;;6179644;23;20488;-81
2021/09/05 10:03:53;;;;;;;11.03;9.97;;;33.20;46.80;;;;;;6180868;23;20433;-81
2021/09/05 10:06:24;;;;;;;10.60;9.77;;;33.30;46.10;;;;;;6179524;23;20434;-80
2021/09/05 10:08:56;;;;;;;11.13;10.13;;;33.50;46.40;;;;;;6179229;23;20473;-83
2021/09/05 10:11:23;;;;;;;10.40;9.50;;;33.50;46.80;;;;;;6179839;23;20398;-83
2021/09/05 10:13:51;;;;;;;10.53;9.73;;;34.60;45.40;;;;;;6180433;23;20607;-82
2021/09/05 10:16:17;;;;;;;10.20;9.30;;;34.60;44.50;;;;;;6180633;23;20414;-81
2021/09/05 10:18:48;;;;;;;12.17;10.87;;;34.60;44.60;;;;;;6177834;23;20913;-82
2021/09/05 10:21:17;;;;;;;11.53;10.53;;;34.20;45.00;;;;;;6179100;23;20719;-81
2021/09/05 10:23:52;;;;;;;14.90;10.40;;;33.70;45.60;;;;;;6179705;23;20473;-82
2021/09/05 10:26:20;;;;;;;10.80;9.90;;;33.60;46.20;;;;;;6178074;23;20426;-81
2021/09/05 10:28:52;;;;;;;10.60;9.70;;;32.90;47.00;;;;;;6179399;23;20477;-80
2021/09/05 10:31:28;;;;;;;10.90;9.93;;;33.30;46.80;;;;;;6178768;23;20870;-80
2021/09/05 10:33:56;;;;;;;10.33;9.50;;;33.40;46.40;;;;;;6177340;23;20432;-78
2021/09/05 10:36:25;;;;;;;10.87;9.97;;;33.10;47.30;;;;;;6178322;23;20410;-81
2021/09/05 10:39:04;;;;;;;11.20;10.10;;;33.40;46.90;;;;;;6177433;23;20485;-83
2021/09/05 10:41:30;;;;;;;11.53;10.37;;;33.30;46.70;;;;;;6180324;23;20404;-80
2021/09/05 10:44:09;;;;;;;11.97;10.97;;;32.40;47.70;;;;;;6177047;23;20426;-82
2021/09/05 10:46:41;;;;;;;10.27;9.30;;;31.30;49.90;;;;;;6178485;23;20445;-80
2021/09/05 10:49:08;;;;;;;10.27;9.37;;;32.10;49.50;;;;;;6178250;23;20402;-83
2021/09/05 10:51:44;;;;;;;11.33;10.40;;;32.70;48.70;;;;;;6178053;23;20436;-81
2021/09/05 10:54:21;;;;;;;9.97;9.07;;;33.00;47.60;;;;;;6178191;23;20430;-81
2021/09/05 10:56:49;;;;;;;11.33;10.43;;;33.00;48.10;;;;;;6178940;23;20394;-80
2021/09/05 10:59:23;;;;;;;10.17;9.33;;;33.10;47.80;;;;;;6178348;23;20414;-83
2021/09/05 11:01:49;;;;;;;10.43;9.43;;;32.50;48.20;;;;;;6179699;23;20433;-79
2021/09/05 11:04:22;;;;;;;10.60;9.73;;;32.20;49.40;;;;;;6175589;23;20433;-82
2021/09/05 11:07:00;;;;;;;9.50;8.67;;;31.90;49.60;;;;;;6180432;23;20454;-83
2021/09/05 11:09:27;;;;;;;9.37;8.63;;;32.40;49.20;;;;;;6179417;23;20406;-82
2021/09/05 11:12:10;;;;;;;9.57;8.77;;;32.50;48.80;;;;;;6178538;23;20410;-82
2021/09/05 11:14:37;;;;;;;10.97;9.97;;;33.20;48.00;;;;;;6178235;23;20495;-81
2021/09/05 11:17:16;;;;;;;10.20;9.30;;;33.30;47.50;;;;;;6180197;23;20402;-82
2021/09/05 11:19:43;;;;;;;9.50;8.70;;;33.00;48.10;;;;;;6178793;23;20417;-81
2021/09/05 11:22:15;;;;;;;10.53;9.63;;;33.40;47.00;;;;;;6180688;23;20458;-80
2021/09/05 11:24:43;;;;;;;10.40;9.60;;;33.00;47.80;;;;;;6178179;23;20426;-80
2021/09/05 11:27:12;;;;;;;9.97;9.17;;;32.90;47.80;;;;;;6180308;23;20410;-79
2021/09/05 11:29:39;;;;;;;9.70;8.83;;;33.00;46.60;;;;;;6177742;23;20521;-81
2021/09/05 11:32:09;;;;;;;10.87;9.97;;;33.10;48.00;;;;;;6181485;23;20406;-82
2021/09/05 11:34:37;;;;;;;9.60;8.70;;;32.70;47.60;;;;;;6181095;23;20502;-81
2021/09/05 11:37:05;;;;;;;10.10;9.30;;;32.60;47.40;;;;;;6182404;23;20964;-82
2021/09/05 11:39:32;;;;;;;9.50;8.70;;;33.30;47.40;;;;;;6198913;23;20465;-83
2021/09/05 11:42:00;;;;;;;8.10;7.40;;;33.40;46.60;;;;;;6180587;23;20959;-84
2021/09/05 11:44:31;;;;;;;7.20;6.70;;;33.60;44.80;;;;;;6175468;23;20442;-80
2021/09/05 11:47:13;;;;;;;7.37;6.77;;;32.60;44.80;;;;;;6177372;23;20476;-80
2021/09/05 11:49:47;;;;;;;8.00;7.20;;;32.20;45.70;;;;;;6182469;23;20390;-80
2021/09/05 11:52:26;;;;;;;8.40;7.70;;;33.00;45.40;;;;;;6181682;23;20410;-81
2021/09/05 11:55:00;;;;;;;8.73;7.37;;;33.20;44.70;;;;;;6178705;23;20425;-82
2021/09/05 11:57:28;;;;;;;7.23;6.73;;;32.30;46.30;;;;;;6182365;23;20412;-84
2021/09/05 11:59:57;;;;;;;7.63;6.70;;;32.60;46.20;;;;;;6179367;23;20402;-83
2021/09/05 12:02:35;;;;;;;8.67;7.77;;;32.50;45.10;;;;;;6179380;23;20417;-82
2021/09/05 12:05:06;;;;;;;7.70;7.10;;;32.80;44.80;;;;;;6178767;23;20418;-82
2021/09/05 12:07:38;;;;;;;7.70;7.10;;;32.90;45.20;;;;;;6180111;23;20396;-82
2021/09/05 12:10:10;;;;;;;8.03;7.37;;;33.00;45.10;;;;;;6179304;23;20721;-80
2021/09/05 12:12:39;;;;;;;8.73;7.83;;;32.50;45.50;;;;;;6175982;23;20469;-83
2021/09/05 12:15:12;;;;;;;7.90;7.30;;;32.80;45.90;;;;;;6176804;23;20434;-81
2021/09/05 12:17:43;;;;;;;7.80;7.10;;;32.70;45.30;;;;;;6179332;23;20866;-82
2021/09/05 12:20:11;;;;;;;8.30;7.60;;;32.50;45.40;;;;;;6179180;23;20404;-82
2021/09/05 12:22:42;;;;;;;7.70;7.10;;;32.80;44.40;;;;;;6178881;23;20394;-82
2021/09/05 12:25:20;;;;;;;7.87;7.27;;;32.60;44.30;;;;;;6181472;23;20952;-82
2021/09/05 12:27:59;;;;;;;7.57;6.97;;;32.80;45.00;;;;;;6191372;23;20412;-80
2021/09/05 12:30:35;;;;;;;8.17;7.50;;;33.40;44.70;;;;;;6185944;23;20484;-81
2021/09/05 12:33:11;;;;;;;7.10;6.60;;;33.30;44.70;;;;;;6175743;23;20426;-83
2021/09/05 12:35:47;;;;;;;8.60;7.70;;;33.10;44.00;;;;;;6176442;23;20523;-80
2021/09/05 12:38:21;;;;;;;8.00;7.40;;;32.80;44.50;;;;;;6176158;23;20417;-82